Time;durP1;ratioP1;P1;durP2;ratioP2;P2;SDS_P1;SDS_P2;PMS_P1;PMS_P2;Temp;Humidity;BMP_temperature;BMP_pressure;BME280_temperature;BME280_humidity;BME280_pressure;Samples;Min_cycle;Max_cycle;Signal;HPM_P1;HPM_P2
2024/03/23 00:03:08;;;;;;;46.60;28.20;;;;;;;12.70;61.94;98451.52;233641;180;138411;-60
2024/03/23 00:08:11;;;;;;;39.20;26.40;;;;;;;12.67;62.50;98446.04;233705;179;138283;-60
2024/03/23 00:13:15;;;;;;;42.10;27.90;;;;;;;12.64;62.82;98436.31;233838;179;152768;-60
2024/03/23 00:18:23;;;;;;;41.40;27.90;;;;;;;12.62;62.73;98428.65;233557;180;137873;-60
2024/03/23 00:23:26;;;;;;;43.20;29.10;;;;;;;12.56;63.13;98421.10;233740;180;138474;-60
2024/03/23 00:28:30;;;;;;;44.00;28.80;;;;;;;12.52;63.71;98414.87;233750;179;153059;-62
2024/03/23 00:33:32;;;;;;;39.70;28.80;;;;;;;12.50;63.86;98410.23;233568;179;137376;-62
2024/03/23 00:38:36;;;;;;;48.90;28.90;;;;;;;12.45;64.13;98404.56;233237;179;138692;-62
2024/03/23 00:43:39;;;;;;;44.80;29.40;;;;;;;12.41;64.37;98397.75;233699;179;153891;-63
2024/03/23 00:48:45;;;;;;;50.20;30.40;;;;;;;12.34;64.36;98392.64;233720;179;137336;-62
2024/03/23 00:53:48;;;;;;;37.90;25.90;;;;;;;12.31;64.61;98384.66;233781;179;138681;-63
2024/03/23 00:58:51;;;;;;;41.30;26.20;;;;;;;12.30;64.95;98378.38;233816;179;153627;-63
2024/03/23 01:03:54;;;;;;;43.00;27.00;;;;;;;12.32;65.19;98378.20;233757;179;137910;-64
2024/03/23 01:08:57;;;;;;;46.00;28.20;;;;;;;12.36;65.19;98378.44;233677;180;138469;-61
2024/03/23 01:14:00;;;;;;;46.30;28.20;;;;;;;12.37;65.14;98374.46;233794;180;154442;-62
2024/03/23 01:19:03;;;;;;;46.80;27.50;;;;;;;12.34;65.20;98369.02;233698;180;137217;-61
2024/03/23 01:24:06;;;;;;;45.40;28.10;;;;;;;12.29;65.56;98365.64;233683;180;138924;-62
2024/03/23 01:29:09;;;;;;;41.70;28.10;;;;;;;12.24;65.75;98362.67;233691;180;153189;-61
2024/03/23 01:34:12;;;;;;;41.60;28.40;;;;;;;12.23;65.82;98359.93;233768;180;138880;-61
2024/03/23 01:39:15;;;;;;;50.10;30.40;;;;;;;12.19;65.91;98355.58;233705;176;138654;-60
2024/03/23 01:44:18;;;;;;;47.90;31.10;;;;;;;12.14;66.03;98352.27;233672;180;153855;-60
2024/03/23 01:49:21;;;;;;;48.50;31.60;;;;;;;12.12;66.11;98349.56;233732;180;138750;-60
2024/03/23 01:54:25;;;;;;;49.10;31.60;;;;;;;12.13;66.09;98347.21;233748;180;138105;-60
2024/03/23 01:59:28;;;;;;;50.40;32.50;;;;;;;12.11;65.87;98348.77;233790;180;153294;-61
2024/03/23 02:04:31;;;;;;;48.80;32.80;;;;;;;12.09;66.03;98344.65;233319;180;139082;-62
2024/03/23 02:09:34;;;;;;;48.50;31.90;;;;;;;12.06;65.95;98343.61;233834;179;137839;-61
2024/03/23 02:14:36;;;;;;;54.10;32.30;;;;;;;12.06;65.87;98337.27;233771;180;153170;-62
2024/03/23 02:19:39;;;;;;;49.60;32.30;;;;;;;12.03;66.24;98326.27;233808;180;138181;-60
2024/03/23 02:24:43;;;;;;;50.00;30.70;;;;;;;12.03;66.45;98320.42;233685;169;137965;-61
2024/03/23 02:29:46;;;;;;;51.20;30.90;;;;;;;12.06;66.37;98313.56;233378;180;153300;-62
2024/03/23 02:34:49;;;;;;;53.90;32.30;;;;;;;12.15;66.43;98312.16;233332;180;138560;-62
2024/03/23 02:39:51;;;;;;;52.40;34.30;;;;;;;12.16;66.46;98293.73;233633;180;138671;-62
2024/03/23 02:44:54;;;;;;;55.50;36.90;;;;;;;12.15;66.57;98284.97;232895;180;153431;-63
2024/03/23 02:49:57;;;;;;;54.10;35.50;;;;;;;12.14;66.40;98282.40;233801;180;138043;-62
2024/03/23 02:55:04;;;;;;;53.00;34.90;;;;;;;12.12;66.45;98282.91;233748;179;138668;-63
2024/03/23 03:00:08;;;;;;;51.60;34.90;;;;;;;12.12;66.66;98284.15;233826;180;155015;-62
2024/03/23 03:05:12;;;;;;;56.00;34.80;;;;;;;12.07;66.60;98283.79;233608;180;137565;-62
2024/03/23 03:10:16;;;;;;;53.60;35.40;;;;;;;11.98;66.95;98283.99;233762;180;275990;-62
2024/03/23 03:15:18;;;;;;;51.90;34.20;;;;;;;11.93;66.93;98286.89;233698;180;153420;-62
2024/03/23 03:20:22;;;;;;;53.00;34.20;;;;;;;11.88;67.36;98277.20;232986;180;138681;-61
2024/03/23 03:25:25;;;;;;;57.90;35.30;;;;;;;11.82;67.76;98266.41;233750;179;138570;-62
2024/03/23 03:30:28;;;;;;;56.30;31.50;;;;;;;11.81;67.84;98258.15;233732;179;153203;-62
2024/03/23 03:35:31;;;;;;;53.80;32.30;;;;;;;11.83;67.97;98248.00;233734;179;139840;-63
2024/03/23 03:40:33;;;;;;;52.70;33.00;;;;;;;11.89;67.70;98248.30;233719;179;138423;-62
2024/03/23 03:45:36;;;;;;;50.10;33.00;;;;;;;11.92;67.62;98247.53;233784;179;153127;-60
2024/03/23 03:50:39;;;;;;;56.40;33.20;;;;;;;11.95;67.29;98241.42;233689;179;138171;-62
2024/03/23 03:55:42;;;;;;;53.40;32.30;;;;;;;11.96;67.46;98228.91;233686;180;138050;-61
2024/03/23 04:00:45;;;;;;;50.80;33.10;;;;;;;11.96;67.51;98228.57;233714;180;252144;-62
2024/03/23 04:05:54;;;;;;;53.80;31.80;;;;;;;11.93;67.66;98215.77;233681;179;138394;-62
2024/03/23 04:10:57;;;;;;;54.40;32.10;;;;;;;11.91;67.58;98219.20;233671;180;138360;-63
2024/03/23 04:16:00;;;;;;;49.60;31.80;;;;;;;11.82;67.32;98221.60;233639;179;153298;-64
2024/03/23 04:21:03;;;;;;;48.70;31.90;;;;;;;11.80;67.63;98223.73;233608;179;137757;-64
2024/03/23 04:26:06;;;;;;;59.80;32.40;;;;;;;11.76;67.57;98222.96;233736;180;141088;-64
2024/03/23 04:31:10;;;;;;;50.90;32.30;;;;;;;11.75;67.70;98230.73;233592;179;154196;-63
2024/03/23 04:36:13;;;;;;;52.40;29.30;;;;;;;11.75;67.62;98215.61;233756;179;138070;-63
2024/03/23 04:41:16;;;;;;;49.80;29.40;;;;;;;11.79;68.20;98217.60;233326;179;139082;-62
2024/03/23 04:46:18;;;;;;;55.40;31.50;;;;;;;11.85;68.34;98215.70;233719;179;154115;-62
2024/03/23 04:51:23;;;;;;;53.80;32.00;;;;;;;11.92;68.44;98216.38;233705;179;137191;-62
2024/03/23 04:56:26;;;;;;;53.70;32.00;;;;;;;11.95;68.43;98206.89;233480;179;137878;-63
2024/03/23 05:01:29;;;;;;;52.20;30.70;;;;;;;11.98;68.79;98202.91;233763;179;153974;-63
2024/03/23 05:06:32;;;;;;;51.80;32.30;;;;;;;11.99;68.84;98193.97;233723;168;138134;-59
2024/03/23 05:11:35;;;;;;;53.10;30.80;;;;;;;11.93;68.86;98187.72;233733;180;137074;-62
2024/03/23 05:16:37;;;;;;;196.80;151.70;;;;;;;11.94;69.59;98181.38;233758;180;153723;-63
2024/03/23 05:21:41;;;;;;;51.10;33.10;;;;;;;12.01;69.50;98172.32;233673;179;138350;-63
2024/03/23 05:26:43;;;;;;;45.00;30.20;;;;;;;11.98;68.98;98175.06;233694;180;138276;-62
2024/03/23 05:31:50;;;;;;;45.00;30.40;;;;;;;11.97;68.88;98168.55;233755;180;153083;-63
2024/03/23 05:36:53;;;;;;;51.80;30.90;;;;;;;12.01;68.86;98164.98;233663;179;138163;-65
2024/03/23 05:41:55;;;;;;;47.30;30.90;;;;;;;12.09;68.64;98164.56;233793;180;138047;-64
2024/03/23 05:46:59;;;;;;;47.60;31.90;;;;;;;12.11;68.41;98144.11;233744;179;154131;-64
2024/03/23 05:52:03;;;;;;;207.30;167.40;;;;;;;12.10;68.41;98142.98;233672;172;138161;-62
2024/03/23 05:57:07;;;;;;;68.40;48.20;;;;;;;12.08;68.61;98146.42;233708;180;138621;-62
2024/03/23 06:02:10;;;;;;;55.70;38.50;;;;;;;12.05;68.66;98149.54;233261;180;154454;-63
2024/03/23 06:07:14;;;;;;;43.70;30.70;;;;;;;12.09;69.05;98145.20;233754;180;138278;-63
2024/03/23 06:12:16;;;;;;;43.50;28.30;;;;;;;12.12;68.93;98143.36;233803;180;138043;-63
2024/03/23 06:17:19;;;;;;;40.50;29.40;;;;;;;12.10;68.90;98139.23;233660;176;153324;-62
2024/03/23 06:22:22;;;;;;;38.10;26.40;;;;;;;12.06;68.98;98130.07;233698;180;138153;-62
2024/03/23 06:27:25;;;;;;;39.80;27.80;;;;;;;12.09;69.33;98125.42;233057;180;139871;-63
2024/03/23 06:32:29;;;;;;;43.60;28.40;;;;;;;12.17;69.03;98114.96;232660;180;152927;-62
2024/03/23 06:37:31;;;;;;;43.00;28.90;;;;;;;12.24;68.88;98119.20;233689;168;138306;-62
2024/03/23 06:42:34;;;;;;;67.40;49.90;;;;;;;12.30;69.15;98103.58;233765;180;138143;-63
2024/03/23 06:47:37;;;;;;;44.00;31.60;;;;;;;12.37;69.12;98109.25;233763;180;155096;-61
2024/03/23 06:52:40;;;;;;;41.60;28.50;;;;;;;12.37;69.01;98114.19;233703;179;137789;-63
2024/03/23 06:57:43;;;;;;;40.30;26.40;;;;;;;12.37;68.55;98121.66;233719;180;137177;-63
2024/03/23 07:02:46;;;;;;;35.70;25.20;;;;;;;12.36;68.32;98115.52;233607;180;154292;-63
2024/03/23 07:07:49;;;;;;;35.60;25.10;;;;;;;12.38;68.34;98110.71;233629;179;138210;-63
2024/03/23 07:12:52;;;;;;;35.20;23.40;;;;;;;12.39;67.80;98099.95;233767;179;137339;-63
2024/03/23 07:17:55;;;;;;;36.00;23.80;;;;;;;12.42;67.55;98095.40;233729;180;153391;-63
2024/03/23 07:22:58;;;;;;;33.70;22.50;;;;;;;12.47;67.27;98094.65;233705;180;138224;-63
2024/03/23 07:28:01;;;;;;;29.50;21.10;;;;;;;12.50;67.13;98095.83;233702;179;140873;-64
2024/03/23 07:33:06;;;;;;;30.40;21.70;;;;;;;12.57;66.96;98090.39;233727;180;153440;-64
2024/03/23 07:38:09;;;;;;;30.10;21.40;;;;;;;12.72;66.53;98084.33;233678;179;138310;-64
2024/03/23 07:43:12;;;;;;;28.90;21.70;;;;;;;12.90;66.35;98076.70;233699;180;138483;-63
2024/03/23 07:48:14;;;;;;;32.20;21.60;;;;;;;13.01;65.25;98076.46;233779;168;154480;-64
2024/03/23 07:53:17;;;;;;;35.00;25.50;;;;;;;13.14;65.10;98062.38;233446;179;137943;-63
2024/03/23 07:58:20;;;;;;;39.20;26.70;;;;;;;13.29;65.03;98058.70;233634;179;137315;-69
2024/03/23 08:03:23;;;;;;;36.20;26.30;;;;;;;13.48;64.68;98053.23;233637;180;156381;-63
2024/03/23 08:08:26;;;;;;;76.40;54.40;;;;;;;13.66;64.07;98044.14;233620;179;137236;-64
2024/03/23 08:13:30;;;;;;;48.40;34.20;;;;;;;13.88;63.82;98026.34;233755;179;137653;-63
2024/03/23 08:18:33;;;;;;;38.60;26.50;;;;;;;13.98;63.57;98010.04;233631;179;154050;-63
2024/03/23 08:23:38;;;;;;;38.20;23.60;;;;;;;14.09;63.42;98003.34;233626;179;138431;-63
2024/03/23 08:28:41;;;;;;;32.40;22.70;;;;;;;14.28;62.48;98003.86;233760;179;137606;-64
2024/03/23 08:33:44;;;;;;;106.30;87.20;;;;;;;14.37;61.94;97992.47;233593;179;154051;-63
2024/03/23 08:38:47;;;;;;;271.50;205.00;;;;;;;14.46;60.92;97986.98;233696;179;137259;-63
2024/03/23 08:43:50;;;;;;;35.20;20.10;;;;;;;14.53;59.91;97985.81;233673;179;139425;-63
2024/03/23 08:48:54;;;;;;;36.20;21.00;;;;;;;14.57;59.02;97985.80;233784;179;153431;-63
2024/03/23 08:53:57;;;;;;;35.10;19.90;;;;;;;14.62;58.87;97967.41;233782;179;138782;-63
2024/03/23 08:59:00;;;;;;;28.10;17.90;;;;;;;14.70;58.08;97958.27;233397;179;138683;-62
2024/03/23 09:04:03;;;;;;;24.80;16.10;;;;;;;14.77;57.17;97946.56;233737;172;153884;-62
2024/03/23 09:09:06;;;;;;;20.20;14.30;;;;;;;14.86;56.59;97930.80;233734;180;138222;-62
2024/03/23 09:14:09;;;;;;;20.00;12.80;;;;;;;14.99;55.76;97919.73;233435;180;138667;-63
2024/03/23 09:19:12;;;;;;;15.40;10.30;;;;;;;15.15;54.93;97918.94;233697;180;153028;-62
2024/03/23 09:24:15;;;;;;;18.00;12.00;;;;;;;15.25;54.32;97906.83;233627;180;137280;-62
2024/03/23 09:29:18;;;;;;;18.90;12.40;;;;;;;15.40;54.13;97894.62;233236;169;140864;-62
2024/03/23 09:34:21;;;;;;;21.00;12.00;;;;;;;15.55;53.82;97883.95;233759;180;153220;-62
2024/03/23 09:39:24;;;;;;;17.80;11.40;;;;;;;15.70;53.57;97883.64;233692;168;139502;-63
2024/03/23 09:44:29;;;;;;;16.60;10.90;;;;;;;15.84;53.35;97872.06;233814;180;138721;-63
2024/03/23 09:49:36;;;;;;;17.50;11.50;;;;;;;15.98;52.79;97864.45;233763;179;154331;-60
2024/03/23 09:54:39;;;;;;;18.20;12.30;;;;;;;16.06;52.31;97849.48;233672;180;137469;-62
2024/03/23 09:59:43;;;;;;;19.80;13.10;;;;;;;16.23;52.63;97839.63;233789;180;138023;-64
2024/03/23 10:04:46;;;;;;;17.40;11.50;;;;;;;16.39;52.37;97820.00;233806;180;153205;-63
2024/03/23 10:09:51;;;;;;;18.10;11.30;;;;;;;16.57;51.50;97806.52;233551;180;138658;-63
2024/03/23 10:14:54;;;;;;;13.40;9.50;;;;;;;16.78;51.35;97793.50;233779;180;137516;-63
2024/03/23 10:19:57;;;;;;;18.50;9.80;;;;;;;16.97;50.28;97793.05;233766;180;153657;-63
2024/03/23 10:25:10;;;;;;;13.70;8.70;;;;;;;17.12;49.73;97783.39;233637;180;138380;-61
2024/03/23 10:30:14;;;;;;;14.00;9.70;;;;;;;17.36;49.45;97777.06;233741;180;137413;-61
2024/03/23 10:35:19;;;;;;;12.30;8.80;;;;;;;17.66;49.10;97770.77;233784;179;153647;-61
2024/03/23 10:40:23;;;;;;;9.00;6.20;;;;;;;17.97;47.81;97749.27;233723;180;138299;-62
2024/03/23 10:45:26;;;;;;;10.40;6.80;;;;;;;18.24;45.88;97734.70;233371;180;138768;-62
2024/03/23 10:50:30;;;;;;;11.10;6.20;;;;;;;18.53;45.40;97716.76;233732;180;154045;-63
2024/03/23 10:55:34;;;;;;;7.80;4.30;;;;;;;18.84;44.02;97687.63;232975;180;138114;-63
2024/03/23 11:00:37;;;;;;;10.30;3.70;;;;;;;19.11;41.84;97671.53;233594;180;137021;-62
2024/03/23 11:05:46;;;;;;;5.30;3.50;;;;;;;19.29;40.03;97657.45;233708;179;152977;-62
2024/03/23 11:10:49;;;;;;;5.30;3.20;;;;;;;19.35;38.07;97648.52;233758;168;140648;-62
2024/03/23 11:15:52;;;;;;;6.50;3.70;;;;;;;19.46;37.82;97645.21;233680;180;137661;-62
2024/03/23 11:20:55;;;;;;;4.30;3.40;;;;;;;19.56;36.31;97639.45;233658;179;155204;-62
2024/03/23 11:25:58;;;;;;;7.00;3.70;;;;;;;19.65;35.84;97631.25;233606;179;137584;-62
2024/03/23 11:31:01;;;;;;;12.20;4.10;;;;;;;19.78;36.08;97624.98;233650;180;137713;-63
2024/03/23 11:36:04;;;;;;;9.90;5.60;;;;;;;20.01;35.76;97607.04;233647;179;154016;-62
2024/03/23 11:41:08;;;;;;;6.20;3.50;;;;;;;20.26;35.24;97590.65;233258;180;138724;-62
2024/03/23 11:46:11;;;;;;;4.80;3.20;;;;;;;20.46;35.03;97573.22;233719;179;138101;-63
2024/03/23 11:51:13;;;;;;;7.80;3.30;;;;;;;20.73;33.47;97563.94;233738;179;153480;-62
2024/03/23 11:56:17;;;;;;;4.90;3.20;;;;;;;20.91;33.97;97545.78;233680;180;138798;-61
2024/03/23 12:01:20;;;;;;;6.90;3.40;;;;;;;20.91;33.28;97534.91;233681;180;138045;-62
2024/03/23 12:06:23;;;;;;;7.20;3.10;;;;;;;20.99;34.12;97523.95;233771;179;234888;-63
2024/03/23 12:11:26;;;;;;;11.30;5.50;;;;;;;21.14;33.79;97501.61;233733;180;137938;-62
2024/03/23 12:16:29;;;;;;;5.30;3.00;;;;;;;21.12;32.74;97474.11;233807;179;138650;-62
2024/03/23 12:21:32;;;;;;;3.70;2.20;;;;;;;21.18;32.95;97459.37;233731;179;154469;-62
2024/03/23 12:26:35;;;;;;;4.50;2.40;;;;;;;21.20;32.68;97442.61;233665;180;141562;-62
2024/03/23 12:31:38;;;;;;;4.40;2.40;;;;;;;21.20;32.08;97430.20;233743;179;137358;-60
2024/03/23 12:36:41;;;;;;;4.40;2.30;;;;;;;21.34;32.51;97416.23;233676;179;153032;-63
2024/03/23 12:41:44;;;;;;;3.70;2.50;;;;;;;21.68;32.06;97401.05;233719;179;137737;-61
2024/03/23 12:46:47;;;;;;;3.60;2.50;;;;;;;22.01;32.18;97400.36;233480;176;138495;-67
2024/03/23 12:51:55;;;;;;;7.90;2.30;;;;;;;22.28;31.82;97390.42;233685;179;153228;-61
2024/03/23 12:56:58;;;;;;;79.20;59.60;;;;;;;22.56;30.84;97381.73;233621;179;138688;-62
2024/03/23 13:02:01;;;;;;;5.90;3.90;;;;;;;22.65;30.09;97369.25;233605;179;137527;-64
2024/03/23 13:07:05;;;;;;;4.10;2.00;;;;;;;22.77;30.18;97356.70;233716;179;153323;-63
2024/03/23 13:12:08;;;;;;;4.40;1.80;;;;;;;22.84;29.47;97338.05;233582;168;137503;-60
2024/03/23 13:17:11;;;;;;;2.90;1.80;;;;;;;22.88;30.05;97320.02;233670;180;137787;-61
2024/03/23 13:22:14;;;;;;;2.80;2.00;;;;;;;23.17;29.55;97304.60;233749;180;153298;-59
2024/03/23 13:27:18;;;;;;;2.10;1.50;;;;;;;23.41;29.63;97291.63;233777;180;147755;-67
2024/03/23 13:32:21;;;;;;;2.60;1.70;;;;;;;23.61;29.40;97279.54;233398;180;138628;-58
2024/03/23 13:37:24;;;;;;;3.40;1.70;;;;;;;23.79;28.99;97276.56;233702;180;152895;-57
2024/03/23 13:42:27;;;;;;;2.70;2.00;;;;;;;23.88;28.79;97259.63;233736;180;138107;-60
2024/03/23 13:47:30;;;;;;;8.10;5.60;;;;;;;23.96;29.22;97257.39;233693;180;137861;-60
2024/03/23 13:52:33;;;;;;;72.10;60.10;;;;;;;23.90;29.33;97254.27;233730;180;153814;-66
2024/03/23 13:57:36;;;;;;;5.40;3.20;;;;;;;23.62;29.83;97245.73;233586;180;138677;-57
2024/03/23 14:02:39;;;;;;;4.50;2.70;;;;;;;23.15;29.84;97239.02;233687;180;138777;-56
2024/03/23 14:07:42;;;;;;;3.80;2.00;;;;;;;22.66;30.47;97241.58;232962;180;152990;-58
2024/03/23 14:12:44;;;;;;;4.10;2.30;;;;;;;22.37;30.93;97241.24;233725;179;138515;-56
2024/03/23 14:17:48;;;;;;;2.80;1.90;;;;;;;22.09;31.31;97241.05;233157;180;137540;-60
2024/03/23 14:22:55;;;;;;;16.00;11.20;;;;;;;21.82;29.69;97238.90;233631;180;153080;-57
2024/03/23 14:27:58;;;;;;;3.70;1.80;;;;;;;21.51;28.68;97234.40;233086;180;138667;-57
2024/03/23 14:33:01;;;;;;;3.40;1.80;;;;;;;21.28;28.45;97241.70;233217;180;142819;-59
2024/03/23 14:38:05;;;;;;;3.00;1.60;;;;;;;21.05;28.71;97247.27;233726;180;152862;-58
2024/03/23 14:43:07;;;;;;;5.20;1.70;;;;;;;20.87;28.51;97284.45;233708;180;137138;-53
2024/03/23 14:48:11;;;;;;;26.20;2.10;;;;;;;20.67;30.52;97378.36;233627;180;137682;-58
2024/03/23 14:53:14;;;;;;;6.10;1.40;;;;;;;19.70;41.68;97487.36;233724;180;153180;-57
2024/03/23 14:58:17;;;;;;;2.10;1.00;;;;;;;18.37;45.28;97525.73;233656;179;138472;-56
2024/03/23 15:03:20;;;;;;;3.70;1.10;;;;;;;17.35;47.52;97527.59;233636;179;137740;-57
2024/03/23 15:08:24;;;;;;;7.10;2.30;;;;;;;16.54;49.73;97537.00;233658;179;154595;-56
2024/03/23 15:13:27;;;;;;;2.70;0.90;;;;;;;16.07;50.51;97533.92;233684;179;137208;-58
2024/03/23 15:18:30;;;;;;;4.20;1.00;;;;;;;15.73;51.16;97544.05;233635;179;137869;-56
2024/03/23 15:23:33;;;;;;;2.40;1.00;;;;;;;15.43;52.07;97540.74;233659;180;154357;-59
2024/03/23 15:33:58;;;;;;;3.20;1.40;;;;;;;15.06;53.37;97567.77;233724;179;137166;-61
2024/03/23 15:39:02;;;;;;;3.20;1.20;;;;;;;14.87;54.39;97600.94;233515;176;152985;-59
2024/03/23 15:44:05;;;;;;;1.80;0.80;;;;;;;14.69;55.60;97631.88;233818;168;138881;-59
2024/03/23 15:49:08;;;;;;;3.80;1.20;;;;;;;14.47;57.68;97639.27;233824;179;137233;-60
2024/03/23 15:54:11;;;;;;;2.40;1.20;;;;;;;14.33;58.95;97646.36;233841;179;153078;-60
2024/03/23 15:59:14;;;;;;;2.10;1.10;;;;;;;14.20;60.01;97663.11;233843;179;137776;-59
2024/03/23 16:04:17;;;;;;;3.20;1.10;;;;;;;14.19;60.54;97663.66;233863;179;136798;-60
2024/03/23 16:09:20;;;;;;;4.10;1.20;;;;;;;14.09;61.56;97667.99;233815;179;154871;-60
2024/03/23 16:14:23;;;;;;;4.20;1.50;;;;;;;14.03;62.37;97645.39;233771;179;138039;-59
2024/03/23 16:19:26;;;;;;;3.40;1.60;;;;;;;13.98;63.32;97640.70;233751;179;138967;-58
2024/03/23 16:24:29;;;;;;;5.40;1.90;;;;;;;13.90;63.75;97651.12;233793;179;153762;-60
2024/03/23 16:29:32;;;;;;;2.80;1.80;;;;;;;13.93;64.40;97666.55;233771;179;138496;-60
2024/03/23 16:34:36;;;;;;;5.40;1.90;;;;;;;13.95;64.60;97662.60;233776;179;138927;-59
2024/03/23 16:39:39;;;;;;;141.10;96.30;;;;;;;13.98;64.42;97661.42;233838;178;153727;-59
2024/03/23 16:44:42;;;;;;;6.00;3.20;;;;;;;13.98;63.99;97652.16;233766;179;137839;-58
2024/03/23 16:49:49;;;;;;;3.30;1.80;;;;;;;13.94;63.61;97665.33;233792;178;140733;-59
2024/03/23 16:54:55;;;;;;;3.30;1.80;;;;;;;13.90;63.18;97660.23;233650;179;153468;-58
2024/03/23 16:59:58;;;;;;;3.40;2.00;;;;;;;13.90;63.50;97672.20;233813;179;137107;-58
2024/03/23 17:05:01;;;;;;;2.60;1.90;;;;;;;13.76;63.79;97696.01;233686;179;138388;-59
2024/03/23 17:10:04;;;;;;;3.90;1.90;;;;;;;13.61;64.09;97704.23;233824;178;153268;-58
2024/03/23 17:15:08;;;;;;;5.30;2.30;;;;;;;13.59;64.38;97704.61;233825;179;138039;-61
2024/03/23 17:20:11;;;;;;;4.20;2.20;;;;;;;13.65;64.16;97710.23;233817;178;138245;-60
2024/03/23 17:25:15;;;;;;;7.50;2.70;;;;;;;13.65;63.63;97717.36;233781;179;153827;-58
2024/03/23 17:30:18;;;;;;;4.40;2.80;;;;;;;13.62;63.37;97730.00;233513;179;138567;-59
2024/03/23 17:35:21;;;;;;;7.10;3.10;;;;;;;13.47;63.54;97749.95;233815;179;139113;-55
2024/03/23 17:40:24;;;;;;;3.90;2.90;;;;;;;13.52;63.57;97754.48;233869;179;153764;-59
2024/03/23 17:45:27;;;;;;;7.50;3.30;;;;;;;13.50;63.28;97766.54;233805;178;137699;-62
2024/03/23 17:50:31;;;;;;;7.70;3.30;;;;;;;13.39;63.60;97801.98;233750;179;137814;-60
2024/03/23 17:55:34;;;;;;;4.30;2.00;;;;;;;13.03;63.33;97864.02;233798;179;153138;-58
2024/03/23 18:00:37;;;;;;;2.80;1.30;;;;;;;12.36;62.56;97890.48;233796;179;138546;-60
2024/03/23 18:05:40;;;;;;;2.20;1.40;;;;;;;11.88;62.24;97910.61;233566;179;138629;-57
2024/03/23 18:10:43;;;;;;;2.00;1.40;;;;;;;11.33;62.73;97911.05;233761;179;155748;-59
2024/03/23 18:15:54;;;;;;;2.60;1.40;;;;;;;11.08;63.72;97924.80;233802;179;137717;-60
2024/03/23 18:21:01;;;;;;;5.70;1.80;;;;;;;10.96;64.30;97928.98;233346;179;138644;-57
2024/03/23 18:26:04;;;;;;;3.10;1.80;;;;;;;10.86;64.59;97951.64;233805;178;153217;-58
2024/03/23 18:31:07;;;;;;;73.80;53.40;;;;;;;10.86;65.13;97959.94;233767;178;137577;-59
2024/03/23 18:36:10;;;;;;;4.20;3.00;;;;;;;10.96;65.55;97945.09;233823;179;138537;-57
2024/03/23 18:41:14;;;;;;;4.30;3.70;;;;;;;10.98;65.27;97935.74;233823;179;152883;-59
2024/03/23 18:46:17;;;;;;;4.50;3.90;;;;;;;10.92;65.30;97943.46;233824;179;138504;-58
2024/03/23 18:51:20;;;;;;;5.00;4.00;;;;;;;10.88;65.70;97948.91;233385;179;139395;-56
2024/03/23 18:56:23;;;;;;;6.20;4.40;;;;;;;10.96;65.84;97960.55;233855;179;153974;-55
2024/03/23 19:01:26;;;;;;;6.50;5.40;;;;;;;11.06;65.37;97978.53;233735;172;138482;-55
2024/03/23 19:06:29;;;;;;;66.70;41.90;;;;;;;11.18;65.15;97990.89;233743;179;137217;-59
2024/03/23 19:11:32;;;;;;;9.40;6.70;;;;;;;11.32;64.56;97990.81;233764;179;153851;-56
2024/03/23 19:16:35;;;;;;;7.90;5.90;;;;;;;11.28;64.08;97988.86;233212;171;138666;-57
2024/03/23 19:21:38;;;;;;;6.80;5.90;;;;;;;11.22;63.79;97984.77;233813;178;137545;-59
2024/03/23 19:26:40;;;;;;;7.00;6.30;;;;;;;10.97;64.17;97981.79;233794;179;153214;-58
2024/03/23 19:31:45;;;;;;;8.20;6.10;;;;;;;10.86;64.36;98005.53;233846;175;138265;-59
2024/03/23 19:36:48;;;;;;;6.50;4.40;;;;;;;10.77;64.33;98007.85;233787;168;137424;-56
2024/03/23 19:41:53;;;;;;;7.70;3.70;;;;;;;10.73;63.86;98019.55;233837;179;153953;-53
2024/03/23 19:46:56;;;;;;;142.90;106.50;;;;;;;10.65;63.39;98020.35;232764;179;139564;-59
2024/03/23 19:51:58;;;;;;;15.60;13.10;;;;;;;10.53;63.14;98014.55;233853;178;138533;-59
2024/03/23 19:57:02;;;;;;;8.20;6.10;;;;;;;10.55;63.29;98015.66;233732;178;154675;-60
2024/03/23 20:02:05;;;;;;;8.80;6.40;;;;;;;10.55;63.75;98016.54;233770;168;140232;-59
2024/03/23 20:07:08;;;;;;;6.80;6.10;;;;;;;10.48;63.52;98014.09;233765;179;138457;-59
2024/03/23 20:12:11;;;;;;;102.40;70.50;;;;;;;10.41;63.51;98025.73;233151;179;153874;-56
2024/03/23 20:17:14;;;;;;;35.10;27.50;;;;;;;10.30;63.22;98022.33;233773;179;139538;-59
2024/03/23 20:22:19;;;;;;;7.00;6.30;;;;;;;10.22;62.27;98002.58;233766;179;138185;-61
2024/03/23 20:27:22;;;;;;;7.30;6.00;;;;;;;10.04;61.49;98006.98;233812;179;153888;-55
2024/03/23 20:32:25;;;;;;;6.10;5.10;;;;;;;9.86;61.54;98001.39;233838;179;138495;-59
2024/03/23 20:37:28;;;;;;;463.80;312.60;;;;;;;9.82;61.45;98003.86;233883;179;137789;-61
2024/03/23 20:42:31;;;;;;;15.80;10.80;;;;;;;10.06;62.80;97989.09;233646;179;154005;-59
2024/03/23 20:47:37;;;;;;;10.90;8.60;;;;;;;10.13;60.35;97978.59;233774;179;138022;-59
2024/03/23 20:52:40;;;;;;;14.10;10.80;;;;;;;10.06;60.16;97986.96;233833;179;137820;-59
2024/03/23 20:57:43;;;;;;;5.20;4.10;;;;;;;10.04;59.88;97994.41;233849;178;153345;-59
2024/03/23 21:02:46;;;;;;;5.50;4.00;;;;;;;9.88;59.60;97995.77;233732;168;137859;-62
2024/03/23 21:07:49;;;;;;;6.40;5.30;;;;;;;9.72;59.84;97990.60;233796;179;138594;-59
2024/03/23 21:12:52;;;;;;;7.50;6.70;;;;;;;9.64;59.85;97999.52;233819;179;154204;-57
2024/03/23 21:17:56;;;;;;;9.30;7.50;;;;;;;9.56;60.00;98002.66;233207;179;138724;-60
2024/03/23 21:22:59;;;;;;;8.40;7.00;;;;;;;9.50;60.03;98015.85;233764;179;137328;-59
2024/03/23 21:28:04;;;;;;;9.10;7.30;;;;;;;9.48;59.80;98023.39;233768;179;153783;-57
2024/03/23 21:33:08;;;;;;;7.50;5.90;;;;;;;9.41;59.53;98028.02;233789;179;137787;-57
2024/03/23 21:38:13;;;;;;;79.60;62.90;;;;;;;9.34;60.15;98026.23;233890;179;138138;-54
2024/03/23 21:43:19;;;;;;;10.90;6.80;;;;;;;9.34;59.75;98021.60;233763;179;154038;-60
2024/03/23 21:48:23;;;;;;;8.70;4.50;;;;;;;9.22;59.90;98020.67;233770;179;141465;-56
2024/03/23 21:53:27;;;;;;;8.00;4.40;;;;;;;9.22;60.01;98012.73;233789;179;137631;-57
2024/03/23 21:58:32;;;;;;;8.00;4.80;;;;;;;9.21;60.18;98004.16;233792;179;153340;-58
2024/03/23 22:03:36;;;;;;;6.80;4.80;;;;;;;9.16;60.50;98002.70;233775;179;138212;-58
2024/03/23 22:08:39;;;;;;;211.20;132.30;;;;;;;9.18;60.62;98000.80;233831;178;137846;-57
2024/03/23 22:13:44;;;;;;;16.10;11.20;;;;;;;9.31;61.01;97990.84;233771;179;154157;-58
2024/03/23 22:18:47;;;;;;;11.10;6.70;;;;;;;9.24;59.81;97981.94;233783;178;137383;-59
2024/03/23 22:23:50;;;;;;;6.90;5.50;;;;;;;9.10;59.31;97987.76;233868;179;137823;-59
2024/03/23 22:28:53;;;;;;;7.90;5.60;;;;;;;9.04;58.91;97999.92;233815;179;153362;-54
2024/03/23 22:33:59;;;;;;;7.60;5.20;;;;;;;8.89;58.65;98002.77;233842;179;138277;-56
2024/03/23 22:39:04;;;;;;;8.10;4.80;;;;;;;8.73;58.48;98000.31;233871;179;137347;-57
2024/03/23 22:44:10;;;;;;;6.00;4.20;;;;;;;8.57;58.21;97999.16;233891;179;153262;-58
2024/03/23 22:49:13;;;;;;;5.50;3.90;;;;;;;8.44;58.32;97997.48;233917;179;137354;-57
2024/03/23 22:54:17;;;;;;;7.10;4.40;;;;;;;8.38;58.19;97988.35;233848;179;137845;-57
2024/03/23 22:59:22;;;;;;;7.30;3.80;;;;;;;8.32;58.13;97989.23;233826;179;154178;-57
2024/03/23 23:04:26;;;;;;;6.50;4.00;;;;;;;8.25;58.17;97987.58;233848;179;137265;-56
2024/03/23 23:09:30;;;;;;;7.40;4.30;;;;;;;8.20;58.19;98006.31;233855;179;137553;-59
2024/03/23 23:14:33;;;;;;;6.40;4.10;;;;;;;8.24;58.27;98012.98;233583;179;153938;-54
2024/03/23 23:19:36;;;;;;;6.10;4.10;;;;;;;8.28;58.03;98020.06;233846;179;137102;-59